This is the latest recevied weather packets stored in our database for station/object YB2VNE-13. If no packets are shown the sender has not sent any weather packets the latest 1 day(s).
| Time | Temp. | Humidity | Pressure | Rain* | Wind** | Luminosity | Snow |
|---|---|---|---|---|---|---|---|
| 1778046939 | 31.11° C | 69% | 992 hPa | - | 0 m/s | 0 W/m² | - |
| 1778046629 | 30.56° C | 72% | 992 hPa | - | 0 m/s | 0 W/m² | - |
| 1778046319 | 31.11° C | 70% | 993 hPa | - | 0 m/s | 0 W/m² | - |
| 1778046009 | 30.56° C | 70% | 993 hPa | - | 0 m/s | 0 W/m² | - |
| 1778045699 | 31.11° C | 69% | 993 hPa | - | 0 m/s | 0 W/m² | - |
| 1778045389 | 30.56° C | 71% | 993 hPa | - | 0 m/s | 0 W/m² | - |
| 1778045079 | 30.56° C | 70% | 993 hPa | - | 0 m/s | 0 W/m² | - |
| 1778044769 | 30.56° C | 71% | 993 hPa | - | 0 m/s | 0 W/m² | - |
| 1778044459 | 30.56° C | 72% | 993 hPa | - | 0 m/s | 0 W/m² | - |
| 1778044149 | 30° C | 73% | 993 hPa | - | 0 m/s | 0 W/m² | - |
| 1778043839 | 30° C | 74% | 993 hPa | - | 0 m/s | 0 W/m² | - |
| 1778043529 | 30° C | 73% | 993 hPa | - | 0 m/s | 0 W/m² | - |
| 1778043219 | 30.56° C | 73% | 993 hPa | - | 0 m/s | 0 W/m² | - |
| 1778042909 | 30° C | 73% | 994 hPa | - | 0 m/s | 0 W/m² | - |
| 1778042599 | 30° C | 75% | 994 hPa | - | 0 m/s | 0 W/m² | - |
| 1778042289 | 30° C | 75% | 994 hPa | - | 0 m/s | 0 W/m² | - |
| 1778041979 | 30° C | 76% | 994 hPa | - | 0 m/s | 0 W/m² | - |
| 1778041669 | 29.44° C | 80% | 994 hPa | - | 0 m/s | 0 W/m² | - |
| 1778041359 | 30.56° C | 74% | 994 hPa | - | 0 m/s | 0 W/m² | - |
| 1778041049 | 29.44° C | 82% | 994 hPa | - | 0 m/s | 0 W/m² | - |
| 1778040739 | 29.44° C | 79% | 994 hPa | - | 0 m/s | 0 W/m² | - |
| 1778040429 | 29.44° C | 79% | 994 hPa | - | 0 m/s | 0 W/m² | - |
| 1778040119 | 29.44° C | 77% | 994 hPa | - | 0 m/s | 0 W/m² | - |
| 1778039809 | 29.44° C | 83% | 995 hPa | - | 0 m/s | 0 W/m² | - |
| 1778039499 | 29.44° C | 82% | 995 hPa | - | 0 m/s | 0 W/m² | - |
* Rain since midnight (hover to see other rain measurements)
** Current wind speed in m/s (hover to see current wind gust speed)